Time;durP1;ratioP1;P1;durP2;ratioP2;P2;SDS_P1;SDS_P2;PMS_P1;PMS_P2;Temp;Humidity;BMP_temperature;BMP_pressure;BME280_temperature;BME280_humidity;BME280_pressure;Samples;Min_cycle;Max_cycle;Signal;HPM_P1;HPM_P2
2022/11/20 00:01:08;;;;;;;14.13;6.47;;;;;;;3.35;100.00;98322.31;4992046;28;20097;-79
2022/11/20 00:03:34;;;;;;;11.27;6.43;;;;;;;3.27;100.00;98312.47;4989957;28;20046;-78
2022/11/20 00:06:04;;;;;;;11.15;6.38;;;;;;;3.47;100.00;98337.00;4991634;28;20711;-78
2022/11/20 00:08:30;;;;;;;9.57;6.13;;;;;;;3.18;100.00;98289.44;4991134;28;20034;-78
2022/11/20 00:10:56;;;;;;;9.73;5.43;;;;;;;3.27;100.00;98312.47;5005056;28;20029;-78
2022/11/20 00:13:21;;;;;;;11.73;6.30;;;;;;;3.37;100.00;98333.69;4991842;28;20034;-79
2022/11/20 00:15:46;;;;;;;12.05;6.40;;;;;;;3.29;100.00;98319.31;4990244;28;20029;-79
2022/11/20 00:18:12;;;;;;;11.48;6.90;;;;;;;3.33;100.00;98335.88;4991885;28;20023;-79
2022/11/20 00:20:37;;;;;;;12.10;6.82;;;;;;;3.23;100.00;98320.00;5002908;28;20030;-82
2022/11/20 00:23:02;;;;;;;12.38;6.90;;;;;;;3.26;100.00;98322.34;5006842;28;20002;-81
2022/11/20 00:25:28;;;;;;;12.25;6.45;;;;;;;3.18;100.00;98322.34;5003540;28;20031;-78
2022/11/20 00:27:53;;;;;;;12.75;6.45;;;;;;;3.21;100.00;98329.19;5001340;28;20061;-78
2022/11/20 00:30:18;;;;;;;11.50;6.15;;;;;;;3.14;100.00;98294.25;4987524;28;20473;-79
2022/11/20 00:32:43;;;;;;;9.73;5.68;;;;;;;2.99;100.00;98274.59;4987940;28;20034;-78
2022/11/20 00:35:09;;;;;;;14.70;7.38;;;;;;;3.17;100.00;98319.81;4991990;28;20088;-79
2022/11/20 00:37:34;;;;;;;15.27;6.85;;;;;;;3.00;100.00;98287.78;5007444;28;20477;-79
2022/11/20 00:39:59;;;;;;;10.45;6.25;;;;;;;3.15;100.00;98305.81;4990169;28;20514;-79
2022/11/20 00:42:25;;;;;;;15.15;7.13;;;;;;;3.16;100.00;98308.31;4982554;28;20023;-78
2022/11/20 00:44:50;;;;;;;16.75;8.25;;;;;;;3.13;100.00;98297.13;4982208;28;20030;-79
2022/11/20 00:47:15;;;;;;;15.75;7.88;;;;;;;3.10;100.00;98297.47;5002644;28;20030;-79
2022/11/20 00:49:41;;;;;;;19.15;7.68;;;;;;;3.10;100.00;98287.59;5004996;28;20038;-79
2022/11/20 00:52:06;;;;;;;17.98;8.45;;;;;;;3.11;100.00;98289.25;4981227;28;20029;-78
2022/11/20 00:54:31;;;;;;;19.00;8.60;;;;;;;3.24;100.00;98316.31;4986410;28;20550;-77
2022/11/20 00:56:56;;;;;;;20.20;8.48;;;;;;;3.30;100.00;98317.47;4990037;28;20084;-79
2022/11/20 00:59:22;;;;;;;16.55;8.05;;;;;;;3.07;100.00;98282.59;4982018;28;20030;-78
2022/11/20 01:01:47;;;;;;;16.60;7.65;;;;;;;3.35;100.00;98328.50;4989724;28;20748;-78
2022/11/20 01:04:12;;;;;;;19.17;8.77;;;;;;;3.42;100.00;98324.16;4987501;28;20034;-79
2022/11/20 01:06:39;;;;;;;19.60;9.15;;;;;;;3.22;100.00;98285.41;4990435;28;20073;-78
2022/11/20 01:09:13;;;;;;;26.73;8.68;;;;;;;3.39;100.00;98296.91;4987234;28;20034;-78
2022/11/20 01:11:43;;;;;;;20.85;8.55;;;;;;;3.56;100.00;98322.59;4988512;28;20070;-78
2022/11/20 01:14:15;;;;;;;24.50;9.27;;;;;;;3.60;100.00;98323.13;4987043;28;20034;-78
2022/11/20 01:16:44;;;;;;;18.60;7.78;;;;;;;3.53;100.00;98336.31;4986208;28;20030;-79
2022/11/20 01:19:12;;;;;;;19.17;8.15;;;;;;;3.49;100.00;98337.69;4991920;28;20077;-77
2022/11/20 01:21:40;;;;;;;25.20;9.77;;;;;;;3.55;100.00;98353.03;4993160;28;20027;-76
2022/11/20 01:24:07;;;;;;;23.80;9.43;;;;;;;3.52;100.00;98348.03;4993341;28;20030;-75
2022/11/20 01:26:34;;;;;;;32.85;11.85;;;;;;;3.51;100.00;98357.06;4997956;28;20072;-76
2022/11/20 01:29:01;;;;;;;30.80;11.68;;;;;;;3.53;100.00;98351.53;4991536;28;20095;-75
2022/11/20 01:31:29;;;;;;;30.67;10.88;;;;;;;3.47;100.00;98339.69;4992025;28;20567;-75
2022/11/20 01:33:57;;;;;;;30.02;9.02;;;;;;;3.37;100.00;98337.19;4989725;28;20034;-75
2022/11/20 01:36:26;;;;;;;29.30;10.55;;;;;;;3.49;100.00;98357.25;4973155;28;20042;-75
2022/11/20 01:38:53;;;;;;;30.42;10.65;;;;;;;3.54;100.00;98363.91;4991497;28;20042;-75
2022/11/20 01:44:04;;;;;;;29.80;10.35;;;;;;;3.41;100.00;98351.06;4987062;28;20511;-75
2022/11/20 01:46:38;;;;;;;30.23;9.90;;;;;;;3.40;100.00;98339.50;4991508;28;20022;-74
2022/11/20 01:49:24;;;;;;;34.60;10.50;;;;;;;3.53;100.00;98355.03;4989646;28;20026;-75
2022/11/20 01:51:55;;;;;;;26.52;10.10;;;;;;;3.58;100.00;98346.53;5008455;28;20031;-75
2022/11/20 01:54:48;;;;;;;30.42;10.77;;;;;;;3.58;100.00;98347.34;4986520;28;20092;-75
2022/11/20 01:57:16;;;;;;;31.85;10.15;;;;;;;3.47;100.00;98334.34;4989103;28;20448;-75
2022/11/20 01:59:47;;;;;;;26.55;10.38;;;;;;;3.50;100.00;98324.13;4999567;28;20026;-76
2022/11/20 02:02:13;;;;;;;30.98;10.93;;;;;;;3.52;100.00;98340.00;4985947;28;20118;-75
2022/11/20 02:04:38;;;;;;;29.23;10.25;;;;;;;3.51;100.00;98327.63;5004568;28;20488;-75
2022/11/20 02:07:05;;;;;;;29.27;10.50;;;;;;;3.69;100.00;98339.00;4992874;28;20030;-75
2022/11/20 02:09:31;;;;;;;27.48;10.57;;;;;;;3.69;100.00;98336.31;4997782;28;20030;-75
2022/11/20 02:11:57;;;;;;;24.35;9.52;;;;;;;3.63;100.00;98323.59;4986038;28;20041;-75
2022/11/20 02:14:24;;;;;;;30.48;11.07;;;;;;;3.59;100.00;98318.75;4989941;28;20037;-75
2022/11/20 02:16:50;;;;;;;25.17;10.60;;;;;;;3.59;100.00;98316.09;4992123;28;20031;-76
2022/11/20 02:19:29;;;;;;;23.30;9.93;;;;;;;3.78;100.00;98344.31;4991572;28;20038;-76
2022/11/20 02:22:04;;;;;;;23.40;9.68;;;;;;;3.76;100.00;98324.91;4981806;28;20604;-75
2022/11/20 02:24:30;;;;;;;25.13;9.63;;;;;;;3.78;100.00;98341.63;4988820;28;20165;-76
2022/11/20 02:27:08;;;;;;;26.02;10.55;;;;;;;3.77;100.00;98337.28;4991195;28;20112;-75
2022/11/20 02:29:39;;;;;;;22.65;9.98;;;;;;;3.88;100.00;98339.59;4991267;28;20022;-74
2022/11/20 02:32:05;;;;;;;21.85;9.63;;;;;;;3.92;100.00;98346.25;4992166;28;20508;-75
2022/11/20 02:34:31;;;;;;;25.60;10.93;;;;;;;3.82;100.00;98343.78;4992432;28;20504;-75
2022/11/20 02:36:58;;;;;;;28.17;11.32;;;;;;;3.78;100.00;98339.78;4990443;28;20030;-74
2022/11/20 02:39:27;;;;;;;26.40;10.43;;;;;;;3.80;100.00;98345.81;4992380;28;20026;-74
2022/11/20 02:41:56;;;;;;;29.60;11.27;;;;;;;3.72;100.00;98332.44;4992392;28;20480;-74
2022/11/20 02:44:21;;;;;;;;;;;;;;;3.80;100.00;98342.28;4989389;28;20034;-74
2022/11/20 02:46:47;;;;;;;26.85;10.82;;;;;;;3.74;100.00;98336.59;4992328;28;19913;-74
2022/11/20 02:49:12;;;;;;;32.55;12.45;;;;;;;3.71;100.00;98336.94;4991891;28;20018;-74
2022/11/20 02:51:37;;;;;;;28.95;12.05;;;;;;;3.67;100.00;98314.25;4991507;28;20026;-74
2022/11/20 02:54:03;;;;;;;29.88;11.77;;;;;;;3.88;100.00;98344.97;4990291;28;20875;-74
2022/11/20 02:56:29;;;;;;;27.27;10.95;;;;;;;3.74;100.00;98309.84;5007343;28;20022;-74
2022/11/20 02:58:55;;;;;;;27.85;11.00;;;;;;;3.99;100.00;98344.59;4987049;28;20066;-75
2022/11/20 03:01:20;;;;;;;31.00;12.18;;;;;;;4.02;100.00;98356.78;4991609;28;20721;-75
2022/11/20 03:03:48;;;;;;;24.88;10.73;;;;;;;3.97;100.00;98330.53;4989973;28;20125;-75
2022/11/20 03:06:13;;;;;;;23.42;10.05;;;;;;;4.01;100.00;98328.31;4989958;28;20031;-75
2022/11/20 03:08:39;;;;;;;24.48;10.73;;;;;;;3.98;100.00;98318.81;4985080;28;20026;-74
2022/11/20 03:11:06;;;;;;;25.42;10.38;;;;;;;4.11;100.00;98335.19;4987549;28;20038;-74
2022/11/20 03:13:32;;;;;;;19.88;9.48;;;;;;;4.04;100.00;98328.84;4992375;28;20026;-74
2022/11/20 03:15:58;;;;;;;24.20;9.45;;;;;;;4.01;100.00;98309.59;4981259;28;20507;-74
2022/11/20 03:18:23;;;;;;;21.75;10.05;;;;;;;4.05;100.00;98311.75;4988877;28;20033;-75
2022/11/20 03:20:48;;;;;;;18.02;8.48;;;;;;;4.12;100.00;98312.72;4989385;28;20022;-75
2022/11/20 03:23:14;;;;;;;21.35;8.90;;;;;;;4.20;100.00;98316.38;4995384;28;20035;-75
2022/11/20 03:25:39;;;;;;;19.08;8.75;;;;;;;4.22;100.00;98298.28;4994587;28;20037;-74
2022/11/20 03:28:04;;;;;;;24.13;9.27;;;;;;;4.41;100.00;98315.78;4993070;28;20034;-74
2022/11/20 03:30:30;;;;;;;14.60;7.88;;;;;;;4.31;100.00;98297.25;4982116;28;20452;-74
2022/11/20 03:32:55;;;;;;;15.40;7.70;;;;;;;4.44;100.00;98302.03;4994327;28;20550;-75
2022/11/20 03:35:20;;;;;;;11.80;6.78;;;;;;;4.49;100.00;98316.56;4987804;28;20065;-75
2022/11/20 03:37:46;;;;;;;15.27;7.38;;;;;;;4.31;100.00;98273.16;4994519;28;20079;-75
2022/11/20 03:40:11;;;;;;;13.45;6.22;;;;;;;4.44;100.00;98286.78;4990431;28;20092;-74
2022/11/20 03:42:45;;;;;;;12.63;6.40;;;;;;;4.56;100.00;98304.13;4992337;28;20035;-75
2022/11/20 03:45:12;;;;;;;12.32;6.88;;;;;;;4.57;100.00;98292.41;4991692;28;20114;-74
2022/11/20 03:47:37;;;;;;;9.32;5.78;;;;;;;4.54;100.00;98282.03;4980900;28;20026;-75
2022/11/20 03:50:03;;;;;;;12.60;6.10;;;;;;;4.51;100.00;98271.69;4989778;28;20045;-74
2022/11/20 03:52:28;;;;;;;9.38;5.93;;;;;;;4.60;100.00;98292.03;4994916;28;20027;-75
2022/11/20 03:54:54;;;;;;;10.88;5.82;;;;;;;4.49;100.00;98260.31;4996211;28;20045;-75
2022/11/20 03:57:19;;;;;;;12.07;5.57;;;;;;;4.63;100.00;98285.47;4994190;28;20036;-75
2022/11/20 03:59:44;;;;;;;11.02;6.13;;;;;;;4.61;100.00;98279.47;4993142;28;20060;-75
2022/11/20 04:02:09;;;;;;;8.45;4.90;;;;;;;4.62;100.00;98286.50;4985977;28;20061;-75
2022/11/20 04:04:35;;;;;;;11.45;6.03;;;;;;;4.59;100.00;98274.31;4993184;28;20029;-75
2022/11/20 04:07:00;;;;;;;11.52;5.15;;;;;;;4.56;100.00;98263.94;4992564;28;20061;-75
2022/11/20 04:09:25;;;;;;;12.55;5.35;;;;;;;4.66;100.00;98284.28;4993973;28;20039;-75
2022/11/20 04:11:51;;;;;;;11.85;5.78;;;;;;;4.53;100.00;98269.66;4995536;28;20129;-75
2022/11/20 04:14:16;;;;;;;14.70;5.40;;;;;;;4.60;100.00;98259.88;5010964;28;20064;-75
2022/11/20 04:16:42;;;;;;;7.38;4.07;;;;;;;4.52;100.00;98261.78;5002177;28;20121;-75
2022/11/20 04:19:15;;;;;;;9.60;4.70;;;;;;;4.61;100.00;98280.31;4986325;28;20478;-75
2022/11/20 04:21:41;;;;;;;9.88;4.70;;;;;;;4.59;100.00;98274.31;4994955;28;20026;-75
2022/11/20 04:24:07;;;;;;;7.80;4.50;;;;;;;4.51;100.00;98276.22;4994844;28;20138;-75
2022/11/20 04:26:33;;;;;;;8.55;4.10;;;;;;;4.49;100.00;98270.19;5002261;28;20105;-75
2022/11/20 04:29:00;;;;;;;8.40;4.20;;;;;;;4.49;100.00;98262.97;4989738;28;20049;-75
2022/11/20 04:31:28;;;;;;;6.80;3.75;;;;;;;4.59;100.00;98276.97;4993364;28;20388;-75
2022/11/20 04:33:53;;;;;;;11.65;4.13;;;;;;;4.53;100.00;98264.31;4995486;28;20037;-75
2022/11/20 04:36:21;;;;;;;9.07;4.60;;;;;;;4.47;100.00;98261.50;4994252;28;20026;-75
2022/11/20 04:39:00;;;;;;;9.00;4.25;;;;;;;4.47;100.00;98261.50;4991671;28;20034;-75
2022/11/20 04:41:31;;;;;;;7.32;3.83;;;;;;;4.50;100.00;98267.31;4986892;28;20380;-75
2022/11/20 04:44:04;;;;;;;5.47;3.22;;;;;;;4.48;100.00;98274.72;4992134;28;20026;-75
2022/11/20 04:46:38;;;;;;;8.55;3.83;;;;;;;4.47;100.00;98269.53;4993580;28;20026;-75
2022/11/20 04:49:04;;;;;;;5.68;3.38;;;;;;;4.55;100.00;98277.50;4991945;28;20128;-75
2022/11/20 04:51:29;;;;;;;8.13;3.92;;;;;;;4.49;100.00;98268.34;4993253;28;20060;-75
2022/11/20 04:53:55;;;;;;;7.97;3.63;;;;;;;4.52;100.00;98269.84;4993722;28;20026;-75
2022/11/20 04:56:20;;;;;;;6.45;3.75;;;;;;;4.64;100.00;98284.50;4994536;28;20026;-75
2022/11/20 04:58:46;;;;;;;13.27;3.35;;;;;;;4.61;100.00;98284.81;4990805;28;20031;-75
2022/11/20 05:01:20;;;;;;;6.53;3.03;;;;;;;4.53;100.00;98255.41;4993681;28;20418;-75
2022/11/20 05:03:46;;;;;;;8.88;2.90;;;;;;;4.65;100.00;98274.59;4987239;28;20023;-75
2022/11/20 05:06:14;;;;;;;6.68;3.30;;;;;;;4.59;100.00;98271.63;4992674;28;20084;-75
2022/11/20 05:08:40;;;;;;;4.82;3.40;;;;;;;4.59;100.00;98268.13;4991379;28;20018;-75
2022/11/20 05:11:07;;;;;;;4.80;3.00;;;;;;;4.65;100.00;98280.78;4994901;28;20501;-75
2022/11/20 05:13:33;;;;;;;9.95;3.83;;;;;;;4.61;100.00;98263.38;4993544;28;20034;-75
2022/11/20 05:16:23;;;;;;;6.13;2.95;;;;;;;4.73;100.00;98261.13;4992118;28;20031;-75
2022/11/20 05:18:50;;;;;;;6.00;3.95;;;;;;;4.70;100.00;98269.53;4986830;28;20465;-75
2022/11/20 05:21:16;;;;;;;6.25;4.07;;;;;;;4.70;100.00;98258.81;4990072;28;20023;-75
2022/11/20 05:23:42;;;;;;;5.95;4.00;;;;;;;4.66;100.00;98261.00;4993461;28;20484;-75
2022/11/20 05:26:13;;;;;;;7.07;3.67;;;;;;;4.65;100.00;98250.50;4990120;28;20467;-74
2022/11/20 05:28:39;;;;;;;5.32;3.10;;;;;;;4.71;100.00;98257.81;4992479;28;20030;-74
2022/11/20 05:31:12;;;;;;;7.50;3.30;;;;;;;4.73;100.00;98258.47;4987113;28;20030;-74
2022/11/20 05:33:41;;;;;;;7.05;3.03;;;;;;;4.74;100.00;98265.47;4992944;28;20027;-74
2022/11/20 05:36:09;;;;;;;6.05;3.22;;;;;;;4.76;100.00;98263.47;4993698;28;20030;-74
2022/11/20 05:38:34;;;;;;;5.15;3.10;;;;;;;4.74;100.00;98262.78;4990941;28;20042;-74
2022/11/20 05:41:09;;;;;;;7.47;3.10;;;;;;;4.74;100.00;98263.66;4990011;28;20030;-74
2022/11/20 05:43:36;;;;;;;6.22;3.15;;;;;;;4.65;100.00;98254.00;4993374;28;20053;-74
2022/11/20 05:46:03;;;;;;;8.18;3.15;;;;;;;4.74;100.00;98258.28;4991776;28;20030;-74
2022/11/20 05:48:28;;;;;;;5.93;2.97;;;;;;;4.68;100.00;98250.13;4985787;28;20505;-74
2022/11/20 05:50:54;;;;;;;5.68;3.38;;;;;;;4.58;100.00;98237.81;4981524;28;20034;-74
2022/11/20 05:53:19;;;;;;;5.63;3.22;;;;;;;4.67;100.00;98241.25;4993603;28;20029;-74
2022/11/20 05:55:45;;;;;;;4.40;3.10;;;;;;;4.76;100.00;98263.47;4991876;28;20456;-74
2022/11/20 05:58:10;;;;;;;5.88;2.70;;;;;;;4.67;100.00;98241.25;4992226;28;20448;-75
2022/11/20 06:00:35;;;;;;;4.80;2.67;;;;;;;4.59;100.00;98235.97;5012618;28;20078;-74
2022/11/20 06:03:01;;;;;;;7.85;3.30;;;;;;;4.68;100.00;98248.28;5016988;28;20053;-74
2022/11/20 06:05:26;;;;;;;6.82;3.35;;;;;;;4.76;100.00;98260.78;5015441;28;20030;-74
2022/11/20 06:07:52;;;;;;;5.32;3.20;;;;;;;4.65;100.00;98245.13;5013038;28;20015;-74
2022/11/20 06:10:17;;;;;;;5.82;3.22;;;;;;;4.66;100.00;98247.63;4992099;28;20085;-74
2022/11/20 06:12:42;;;;;;;4.05;2.90;;;;;;;4.62;100.00;98243.66;4994477;28;20053;-74
2022/11/20 06:15:08;;;;;;;5.90;2.90;;;;;;;4.68;100.00;98252.81;4993205;28;20050;-74
2022/11/20 06:17:33;;;;;;;5.07;3.08;;;;;;;4.61;100.00;98239.28;4993054;28;20035;-74
2022/11/20 06:19:59;;;;;;;4.95;2.83;;;;;;;4.64;100.00;98243.44;4985637;28;20342;-74
2022/11/20 06:22:24;;;;;;;5.88;2.70;;;;;;;4.60;100.00;98234.94;4985810;28;20018;-74
2022/11/20 06:24:49;;;;;;;6.05;3.00;;;;;;;4.56;100.00;98226.44;4993276;28;20034;-74
2022/11/20 06:27:16;;;;;;;4.95;2.88;;;;;;;4.70;100.00;98253.47;4988708;28;20034;-74
2022/11/20 06:29:41;;;;;;;5.43;2.75;;;;;;;4.58;100.00;98224.44;4989135;28;20586;-74
2022/11/20 06:32:06;;;;;;;4.55;2.70;;;;;;;4.59;100.00;98228.75;4982882;28;20038;-74
2022/11/20 06:34:32;;;;;;;4.10;2.60;;;;;;;4.68;100.00;98247.44;4983514;28;20031;-74
2022/11/20 06:36:58;;;;;;;4.05;2.35;;;;;;;4.65;100.00;98237.09;4990667;28;20034;-81
2022/11/20 06:39:24;;;;;;;4.25;2.45;;;;;;;4.73;100.00;98253.94;5001842;28;20033;-81
2022/11/20 06:42:00;;;;;;;9.20;3.25;;;;;;;4.73;100.00;98253.94;5007820;28;20053;-80
2022/11/20 06:44:34;;;;;;;4.38;2.60;;;;;;;4.64;100.00;98238.09;5008974;28;20014;-82
2022/11/20 06:47:00;;;;;;;5.15;2.45;;;;;;;4.62;100.00;98232.94;4998817;28;20049;-81
2022/11/20 06:49:28;;;;;;;4.25;2.80;;;;;;;4.74;100.00;98255.63;4991234;28;20030;-83
2022/11/20 06:52:34;;;;;;;3.85;2.58;;;;;;;4.77;100.00;98254.44;4999540;28;20018;-86
2022/11/20 06:55:02;;;;;;;5.03;2.38;;;;;;;4.79;100.00;98247.88;5002267;28;20026;-83
2022/11/20 07:04:12;;;;;;;6.38;3.95;;;;;;;4.76;100.00;98253.56;5001038;28;20065;-78
2022/11/20 07:06:38;;;;;;;7.28;4.13;;;;;;;4.89;100.00;98274.41;4994344;28;20038;-80
2022/11/20 07:09:05;;;;;;;5.22;3.13;;;;;;;4.94;100.00;98276.56;5003371;28;20511;-81
2022/11/20 07:11:41;;;;;;;;;;;;;;;;;;;;;
2022/11/20 07:14:06;;;;;;;5.93;2.90;;;;;;;4.43;100.00;98183.34;4999041;28;20952;-83
2022/11/20 07:16:32;;;;;;;5.88;3.22;;;;;;;4.67;100.00;98227.03;4994276;28;20057;-87
2022/11/20 07:18:57;;;;;;;5.97;3.03;;;;;;;4.89;100.00;98265.53;5013801;28;20061;-81
2022/11/20 07:21:23;;;;;;;6.53;3.05;;;;;;;5.02;100.00;98292.56;4997544;28;20022;-84
2022/11/20 07:23:48;;;;;;;8.32;3.30;;;;;;;4.97;100.00;98298.47;4990267;28;20437;-80
2022/11/20 07:26:13;;;;;;;10.45;3.00;;;;;;;4.90;100.00;98291.31;4997350;28;20030;-84
2022/11/20 07:28:39;;;;;;;5.57;3.00;;;;;;;4.73;100.00;98277.22;4997030;28;20084;-82
2022/11/20 07:31:06;;;;;;;4.60;3.40;;;;;;;4.66;100.00;98284.28;5005972;28;20029;-81
2022/11/20 07:33:32;;;;;;;5.25;3.10;;;;;;;4.77;100.00;98291.94;5002126;28;20404;-81
2022/11/20 07:36:01;;;;;;;6.43;4.35;;;;;;;4.82;100.00;98303.78;4996445;28;20023;-85
2022/11/20 07:38:27;;;;;;;4.75;3.25;;;;;;;4.78;100.00;98298.97;5002108;28;20018;-81
2022/11/20 07:41:01;;;;;;;7.20;4.40;;;;;;;4.68;100.00;98298.34;4998820;28;20460;-81
2022/11/20 07:43:26;;;;;;;10.93;5.03;;;;;;;4.66;100.00;98300.38;4996672;28;20026;-80
2022/11/20 07:45:54;;;;;;;7.25;4.80;;;;;;;4.60;100.00;98297.38;4999022;28;20514;-80
2022/11/20 07:48:19;;;;;;;8.40;5.15;;;;;;;4.58;100.00;98296.75;4992420;28;20026;-80
2022/11/20 07:50:45;;;;;;;6.65;4.75;;;;;;;4.57;100.00;98294.25;4993033;28;20048;-80
2022/11/20 07:53:12;;;;;;;7.20;4.35;;;;;;;4.63;100.00;98312.28;4996709;28;20081;-79
2022/11/20 07:55:37;;;;;;;5.97;4.28;;;;;;;4.46;100.00;98278.59;5010267;28;20085;-74
2022/11/20 07:58:02;;;;;;;6.75;4.78;;;;;;;4.66;100.00;98308.41;4996660;28;20125;-79
2022/11/20 08:00:28;;;;;;;8.35;4.82;;;;;;;4.55;100.00;98304.28;5002436;28;20022;-80
2022/11/20 08:02:53;;;;;;;10.05;4.55;;;;;;;4.63;100.00;98316.81;5007378;28;20030;-78
2022/11/20 08:05:44;;;;;;;8.60;5.00;;;;;;;4.74;100.00;98313.72;5011978;28;20061;-84
2022/11/20 08:08:09;;;;;;;7.63;5.40;;;;;;;4.61;100.00;98285.69;5010298;28;20552;-75
2022/11/20 08:10:34;;;;;;;12.18;5.97;;;;;;;4.76;100.00;98304.47;4977560;28;20115;-74
2022/11/20 08:15:49;;;;;;;8.77;5.20;;;;;;;4.86;100.00;98311.47;4991146;28;20131;-75
2022/11/20 08:18:15;;;;;;;7.53;4.85;;;;;;;4.95;100.00;98315.72;4996386;28;20030;-76
2022/11/20 08:21:07;;;;;;;8.45;5.57;;;;;;;5.05;100.00;98337.78;4995722;28;20037;-89
2022/11/20 08:23:33;;;;;;;13.30;6.55;;;;;;;5.09;100.00;98322.19;4986524;28;20030;-78
2022/11/20 08:26:03;;;;;;;10.30;6.15;;;;;;;5.16;100.00;98333.84;4994573;28;20037;-78
2022/11/20 08:28:28;;;;;;;9.43;5.18;;;;;;;5.00;100.00;98322.25;4995162;28;20026;-80
2022/11/20 08:30:59;;;;;;;10.50;5.70;;;;;;;4.93;100.00;98318.63;4999605;28;20026;-79
2022/11/20 08:33:29;;;;;;;9.55;5.90;;;;;;;4.96;100.00;98328.97;5011569;28;20088;-81
2022/11/20 08:36:02;;;;;;;12.48;6.95;;;;;;;4.95;100.00;98340.72;5007261;28;20130;-80
2022/11/20 08:38:28;;;;;;;11.02;6.35;;;;;;;4.99;100.00;98346.53;4994022;28;20473;-80
2022/11/20 08:43:41;;;;;;;11.63;7.40;;;;;;;4.96;100.00;98346.91;4994446;28;20069;-80
2022/11/20 08:46:06;;;;;;;13.00;7.85;;;;;;;4.97;100.00;98340.53;4995137;28;20030;-81
2022/11/20 08:48:31;;;;;;;12.82;8.85;;;;;;;4.94;100.00;98340.88;4988864;28;20116;-77
2022/11/20 08:50:59;;;;;;;19.17;9.73;;;;;;;5.02;100.00;98352.38;4998012;28;20069;-79
2022/11/20 08:53:24;;;;;;;17.77;9.88;;;;;;;4.94;100.00;98333.66;4997577;28;20026;-79
2022/11/20 08:55:50;;;;;;;17.52;8.68;;;;;;;4.96;100.00;98345.06;4992462;28;20037;-79
2022/11/20 08:58:15;;;;;;;13.27;8.52;;;;;;;4.94;100.00;98356.97;4992124;28;20108;-78
2022/11/20 09:00:40;;;;;;;12.07;7.35;;;;;;;4.86;100.00;98339.09;4994079;28;20037;-81
2022/11/20 09:03:05;;;;;;;12.90;7.28;;;;;;;5.02;100.00;98354.22;5013014;28;20061;-77
2022/11/20 09:05:31;;;;;;;20.48;7.55;;;;;;;5.12;100.00;98372.75;4992831;28;20580;-79
2022/11/20 09:08:00;;;;;;;15.63;6.82;;;;;;;5.13;100.00;98350.28;4992723;28;20041;-78
2022/11/20 09:10:26;;;;;;;10.00;5.90;;;;;;;5.00;100.00;98330.28;4990218;28;20026;-79
2022/11/20 09:12:52;;;;;;;7.22;4.68;;;;;;;5.30;100.00;98369.78;4992387;28;20084;-77
2022/11/20 09:15:17;;;;;;;7.88;4.38;;;;;;;5.30;100.00;98367.94;4992124;28;20194;-76
2022/11/20 09:17:54;;;;;;;10.00;4.95;;;;;;;5.19;100.00;98365.69;4991521;28;20129;-78
2022/11/20 09:20:19;;;;;;;5.57;3.75;;;;;;;5.21;100.00;98352.91;4992109;28;20042;-76
2022/11/20 09:22:45;;;;;;;7.25;3.78;;;;;;;5.31;100.00;98372.25;4990311;28;20030;-76
2022/11/20 09:25:11;;;;;;;7.10;3.95;;;;;;;5.27;100.00;98368.28;4987769;28;20082;-76
2022/11/20 09:27:37;;;;;;;8.82;3.47;;;;;;;5.22;100.00;98365.31;4992363;28;20514;-76
2022/11/20 09:30:03;;;;;;;5.72;3.00;;;;;;;5.27;100.00;98365.59;4993192;28;20440;-76
2022/11/20 09:32:29;;;;;;;6.53;2.75;;;;;;;5.33;100.00;98369.41;4983053;28;20093;-76
2022/11/20 09:34:54;;;;;;;3.80;2.42;;;;;;;5.43;100.00;98381.56;4987795;28;20027;-76
2022/11/20 09:37:19;;;;;;;5.47;2.30;;;;;;;5.26;100.00;98347.81;4985961;28;20038;-76
2022/11/20 09:39:44;;;;;;;3.65;2.30;;;;;;;5.55;100.00;98354.28;4987162;28;20138;-76
2022/11/20 09:42:26;;;;;;;3.88;2.20;;;;;;;5.72;100.00;98378.09;4990966;28;20050;-76
2022/11/20 09:45:02;;;;;;;3.40;2.22;;;;;;;5.86;100.00;98378.31;4997314;28;20054;-74
2022/11/20 09:47:28;;;;;;;6.32;2.05;;;;;;;5.90;100.00;98369.69;4992417;28;20113;-74
2022/11/20 09:50:02;;;;;;;6.28;2.30;;;;;;;5.93;100.00;98374.72;4988400;28;20090;-84
2022/11/20 09:52:56;;;;;;;5.60;2.05;;;;;;;6.16;100.00;98376.50;4992570;28;20029;-79
2022/11/20 09:55:21;;;;;;;2.83;1.85;;;;;;;6.12;100.00;98365.28;4992354;28;20097;-80
2022/11/20 10:01:15;;;;;;;4.82;2.50;;;;;;;6.32;100.00;98354.81;4985445;28;20033;-80
2022/11/20 10:03:53;;;;;;;7.32;3.28;;;;;;;6.39;100.00;98359.44;5006338;28;20022;-81
2022/11/20 10:06:24;;;;;;;4.53;2.75;;;;;;;6.34;100.00;98357.28;5002482;28;20033;-82
2022/11/20 10:09:02;;;;;;;4.18;2.70;;;;;;;6.42;100.00;98364.41;4989462;28;20028;-80
2022/11/20 10:11:58;;;;;;;4.57;2.83;;;;;;;6.48;100.00;98361.84;4987513;28;20109;-80
2022/11/20 10:14:41;;;;;;;4.50;2.78;;;;;;;6.53;100.00;98351.34;5005206;28;20033;-80
2022/11/20 10:17:31;;;;;;;4.88;2.85;;;;;;;6.52;100.00;98351.53;4985409;28;20090;-80
2022/11/20 10:20:25;;;;;;;7.40;3.22;;;;;;;6.59;100.00;98341.69;4993013;28;20483;-79
2022/11/20 10:22:59;;;;;;;7.68;2.90;;;;;;;6.61;100.00;98344.22;4987714;28;20058;-79
2022/11/20 10:25:39;;;;;;;5.05;2.72;;;;;;;6.33;100.00;98326.91;4981830;28;20030;-80
2022/11/20 10:28:17;;;;;;;4.75;2.80;;;;;;;6.45;100.00;98334.50;4983941;28;20046;-80
2022/11/20 10:30:45;;;;;;;4.18;2.33;;;;;;;6.42;100.00;98342.91;4986114;28;20034;-79
2022/11/20 10:33:21;;;;;;;1.83;1.60;;;;;;;6.40;100.00;98342.31;4989218;28;20121;-78
2022/11/20 10:36:16;;;;;;;3.30;1.63;;;;;;;6.38;100.00;98349.72;5010450;28;20041;-81
2022/11/20 10:39:00;;;;;;;2.58;1.50;;;;;;;6.19;100.00;98341.22;4989518;28;20035;-81
2022/11/20 10:41:31;;;;;;;2.45;1.83;;;;;;;6.32;100.00;98362.03;4990521;28;20026;-81
2022/11/20 10:44:03;;;;;;;4.40;2.47;;;;;;;6.47;100.00;98359.31;4993104;28;20064;-80
2022/11/20 10:46:40;;;;;;;4.30;2.70;;;;;;;6.60;100.00;98354.09;4999220;28;20021;-80
2022/11/20 10:49:13;;;;;;;5.60;2.50;;;;;;;6.80;100.00;98359.72;5000950;28;20720;-80
2022/11/20 10:52:16;;;;;;;4.53;2.88;;;;;;;7.11;100.00;98348.66;4992192;28;20497;-80
2022/11/20 10:54:55;;;;;;;3.15;2.17;;;;;;;7.20;100.00;98338.59;4987267;28;20106;-78
2022/11/20 10:57:47;;;;;;;4.20;1.90;;;;;;;6.93;100.00;98332.97;4987223;28;20026;-80
2022/11/20 11:00:13;;;;;;;3.78;1.90;;;;;;;7.11;100.00;98337.91;4964067;28;20154;-80
2022/11/20 11:02:47;;;;;;;2.72;1.80;;;;;;;6.85;100.00;98322.34;4971825;28;20050;-79
2022/11/20 11:05:37;;;;;;;2.78;1.67;;;;;;;6.87;100.00;98332.91;4975032;28;20029;-78
2022/11/20 11:08:05;;;;;;;3.00;1.90;;;;;;;6.50;100.00;98327.53;4987938;28;20089;-80
2022/11/20 11:10:44;;;;;;;6.20;2.10;;;;;;;6.50;100.00;98319.47;4980290;28;20312;-80
2022/11/20 11:13:30;;;;;;;4.10;1.98;;;;;;;6.45;100.00;98342.56;4982199;28;20034;-79
2022/11/20 11:15:57;;;;;;;2.30;1.60;;;;;;;6.46;100.00;98336.16;4990449;28;20026;-75
2022/11/20 11:18:27;;;;;;;4.25;2.00;;;;;;;6.65;100.00;98332.84;4989613;28;20065;-76
2022/11/20 11:20:54;;;;;;;5.72;2.08;;;;;;;6.67;100.00;98333.50;4981487;28;20026;-76
2022/11/20 11:23:40;;;;;;;2.85;2.10;;;;;;;6.55;100.00;98311.69;4985524;28;20034;-76
2022/11/20 11:26:18;;;;;;;4.30;1.83;;;;;;;6.76;100.00;98313.56;4980554;28;20076;-76
2022/11/20 11:28:53;;;;;;;4.22;2.25;;;;;;;6.57;100.00;98298.03;4996456;28;20026;-76
2022/11/20 11:31:24;;;;;;;5.28;2.45;;;;;;;6.65;100.00;98303.28;4971579;28;20082;-78
2022/11/20 11:33:49;;;;;;;5.43;2.08;;;;;;;6.59;100.00;98286.06;4980847;28;20026;-76
2022/11/20 11:36:24;;;;;;;4.15;2.58;;;;;;;6.69;100.00;98303.75;4988110;28;20034;-76
2022/11/20 11:38:53;;;;;;;5.22;2.40;;;;;;;6.76;100.00;98297.44;4985575;28;20397;-75
2022/11/20 11:41:23;;;;;;;6.50;2.60;;;;;;;6.76;100.00;98289.38;4987165;28;20567;-76
2022/11/20 11:46:53;;;;;;;6.85;2.85;;;;;;;7.15;100.00;98284.53;4993020;28;20503;-77
2022/11/20 11:49:19;;;;;;;5.07;2.78;;;;;;;7.54;100.00;98277.78;4986481;28;20045;-76
2022/11/20 11:51:56;;;;;;;6.03;2.60;;;;;;;7.67;100.00;98270.63;4990637;28;20088;-76
2022/11/20 11:54:30;;;;;;;6.38;2.40;;;;;;;7.60;100.00;98236.63;4990696;28;20042;-77
2022/11/20 11:57:00;;;;;;;8.48;2.83;;;;;;;8.18;100.00;98249.75;4991060;28;20317;-78
2022/11/20 12:02:48;;;;;;;8.48;2.78;;;;;;;8.47;100.00;98241.38;4989788;28;20038;-77